createdAt,value
2022-12-31T00:02:25.834Z,254.65
2022-12-31T00:04:55.607Z,269.48
2022-12-31T00:07:23.837Z,273.52
2022-12-31T00:09:51.996Z,278.58
2022-12-31T00:12:20.214Z,272.80
2022-12-31T00:14:48.555Z,263.17
2022-12-31T00:17:16.801Z,261.95
2022-12-31T00:19:45.075Z,245.57
2022-12-31T00:22:13.426Z,240.35
2022-12-31T00:24:41.645Z,228.77
2022-12-31T00:27:09.994Z,241.75
2022-12-31T00:29:38.231Z,253.02
2022-12-31T00:32:06.672Z,257.58
2022-12-31T00:34:35.257Z,260.98
2022-12-31T00:37:03.481Z,245.55
2022-12-31T00:39:31.682Z,241.65
2022-12-31T00:41:59.943Z,248.32
2022-12-31T00:44:28.086Z,229.15
2022-12-31T00:46:56.284Z,240.60
2022-12-31T00:49:24.493Z,225.88
2022-12-31T00:51:52.770Z,224.05
2022-12-31T00:54:21.073Z,222.23
2022-12-31T00:56:49.269Z,224.60
2022-12-31T00:59:17.579Z,214.38
2022-12-31T01:01:46.018Z,209.52
2022-12-31T01:04:19.409Z,222.20
2022-12-31T01:06:48.311Z,204.70
2022-12-31T01:09:17.466Z,215.05
2022-12-31T01:11:46.218Z,206.27
2022-12-31T01:14:17.027Z,219.32
2022-12-31T01:16:48.257Z,212.65
2022-12-31T01:19:22.372Z,206.30
2022-12-31T01:21:51.922Z,208.38
2022-12-31T01:24:20.588Z,216.07
2022-12-31T01:26:50.535Z,201.52
2022-12-31T01:29:18.958Z,200.85
2022-12-31T01:31:47.078Z,188.68
2022-12-31T01:34:15.288Z,186.27
2022-12-31T01:36:43.660Z,187.57
2022-12-31T01:39:12.294Z,179.82
2022-12-31T01:41:44.272Z,181.85
2022-12-31T01:44:12.526Z,175.85
2022-12-31T01:46:47.963Z,182.85
2022-12-31T01:49:37.674Z,168.82
2022-12-31T01:52:34.587Z,173.55
2022-12-31T01:55:26.274Z,171.20
2022-12-31T01:57:59.702Z,158.67
2022-12-31T02:00:28.087Z,163.38
2022-12-31T02:02:56.370Z,165.95
2022-12-31T02:05:35.692Z,153.98
2022-12-31T02:08:05.868Z,152.02
2022-12-31T02:10:34.181Z,147.65
2022-12-31T02:13:03.217Z,143.73
2022-12-31T02:16:09.810Z,135.75
2022-12-31T02:18:57.067Z,132.23
2022-12-31T02:21:45.481Z,127.35
2022-12-31T02:24:27.704Z,128.73
2022-12-31T02:29:36.457Z,118.85
2022-12-31T02:32:17.141Z,125.95
2022-12-31T02:34:54.039Z,133.02
2022-12-31T02:37:25.589Z,140.32
2022-12-31T02:39:54.508Z,143.38
2022-12-31T02:42:22.708Z,137.57
2022-12-31T02:44:50.786Z,130.98
2022-12-31T02:47:44.916Z,134.07
2022-12-31T02:50:23.082Z,136.27
2022-12-31T02:53:14.853Z,126.45
2022-12-31T02:55:56.337Z,126.28
2022-12-31T02:58:38.526Z,126.63
2022-12-31T03:01:07.040Z,121.93
2022-12-31T03:03:37.287Z,119.57
2022-12-31T03:06:08.436Z,115.60
2022-12-31T03:08:37.335Z,119.63
2022-12-31T03:11:05.660Z,111.32
2022-12-31T03:13:34.574Z,114.15
2022-12-31T03:16:02.910Z,108.13
2022-12-31T03:18:31.171Z,106.40
2022-12-31T03:20:59.497Z,109.22
2022-12-31T03:23:33.368Z,109.15
2022-12-31T03:26:02.861Z,105.53
2022-12-31T03:28:31.536Z,98.75
2022-12-31T03:31:01.875Z,95.35
2022-12-31T03:33:36.388Z,92.25
2022-12-31T03:36:06.831Z,93.47
2022-12-31T03:38:34.997Z,86.55
2022-12-31T03:41:03.158Z,92.85
2022-12-31T03:43:31.396Z,91.95
2022-12-31T03:45:59.646Z,91.85
2022-12-31T03:48:28.153Z,91.97
2022-12-31T03:50:56.602Z,91.30
2022-12-31T03:53:24.923Z,89.55
2022-12-31T03:55:54.129Z,88.88
2022-12-31T03:58:23.343Z,89.38
2022-12-31T04:00:51.952Z,91.55
2022-12-31T04:03:20.336Z,87.97
2022-12-31T04:05:56.446Z,94.63
2022-12-31T04:08:25.351Z,93.57
2022-12-31T04:10:53.525Z,92.05
2022-12-31T04:13:21.737Z,91.97
2022-12-31T04:15:53.164Z,88.88
2022-12-31T04:18:21.375Z,88.55
2022-12-31T04:20:49.402Z,88.53
2022-12-31T04:23:18.942Z,85.32
2022-12-31T04:25:47.185Z,84.75
2022-12-31T04:28:15.632Z,82.38
2022-12-31T04:30:44.367Z,85.53
2022-12-31T04:33:12.965Z,86.40
2022-12-31T04:35:41.304Z,85.45
2022-12-31T04:38:09.671Z,81.85
2022-12-31T04:40:37.816Z,82.00
2022-12-31T04:43:06.100Z,77.70
2022-12-31T04:45:34.423Z,74.53
2022-12-31T04:48:02.752Z,72.22
2022-12-31T04:50:31.032Z,74.75
2022-12-31T04:52:59.233Z,76.95
2022-12-31T04:55:27.547Z,73.00
2022-12-31T04:57:55.729Z,73.75
2022-12-31T05:00:23.963Z,70.97
2022-12-31T05:02:52.196Z,71.70
2022-12-31T05:05:20.498Z,70.32
2022-12-31T05:07:48.687Z,69.05
2022-12-31T05:10:16.948Z,68.32
2022-12-31T05:12:45.277Z,68.72
2022-12-31T05:15:13.521Z,63.47
2022-12-31T05:17:41.907Z,63.15
2022-12-31T05:20:10.456Z,65.28
2022-12-31T05:22:38.531Z,70.03
2022-12-31T05:25:07.236Z,67.03
2022-12-31T05:27:35.872Z,66.10
2022-12-31T05:30:05.293Z,65.53
2022-12-31T05:32:34.033Z,64.72
2022-12-31T05:35:02.268Z,69.78
2022-12-31T05:37:31.064Z,66.43
2022-12-31T05:39:59.628Z,65.45
2022-12-31T05:42:28.330Z,67.43
2022-12-31T05:44:56.521Z,64.82
2022-12-31T05:47:24.991Z,68.28
2022-12-31T05:49:53.649Z,70.95
2022-12-31T05:52:22.716Z,64.72
2022-12-31T05:54:51.353Z,71.50
2022-12-31T05:57:19.929Z,70.47
2022-12-31T05:59:48.239Z,66.32
2022-12-31T06:02:16.467Z,69.78
2022-12-31T06:04:44.866Z,66.18
2022-12-31T06:07:13.239Z,69.57
2022-12-31T06:09:41.569Z,68.15
2022-12-31T06:12:10.229Z,67.53
2022-12-31T06:14:43.775Z,67.80
2022-12-31T06:17:13.942Z,65.93
2022-12-31T06:19:42.186Z,71.20
2022-12-31T06:22:10.345Z,68.22
2022-12-31T06:24:38.685Z,71.45
2022-12-31T06:27:06.927Z,71.07
2022-12-31T06:29:35.145Z,75.55
2022-12-31T06:32:03.500Z,73.72
2022-12-31T06:34:32.069Z,74.65
2022-12-31T06:37:00.601Z,76.97
2022-12-31T06:39:28.977Z,73.82
2022-12-31T06:41:57.372Z,81.63
2022-12-31T06:44:25.573Z,79.80
2022-12-31T06:46:53.862Z,79.50
2022-12-31T06:49:25.460Z,79.05
2022-12-31T06:51:53.711Z,77.32
2022-12-31T06:54:22.158Z,74.65
2022-12-31T06:56:50.777Z,75.40
2022-12-31T06:59:30.079Z,81.03
2022-12-31T07:02:17.012Z,75.93
2022-12-31T07:05:18.535Z,78.72
2022-12-31T07:07:53.788Z,82.70
2022-12-31T07:10:37.311Z,81.60
2022-12-31T07:13:23.986Z,81.40
2022-12-31T07:16:14.040Z,77.53
2022-12-31T07:19:06.300Z,74.82
2022-12-31T07:21:41.675Z,78.57
2022-12-31T07:24:11.645Z,72.60
2022-12-31T07:27:19.329Z,72.60
2022-12-31T07:29:59.843Z,70.68
2022-12-31T07:32:59.093Z,69.90
2022-12-31T07:35:53.435Z,70.88
2022-12-31T07:38:59.768Z,77.43
2022-12-31T07:41:40.235Z,77.10
2022-12-31T07:44:30.450Z,78.43
2022-12-31T07:47:04.004Z,80.20
2022-12-31T07:49:34.078Z,74.82
2022-12-31T07:52:03.568Z,74.78
2022-12-31T07:54:31.764Z,71.03
2022-12-31T07:56:59.948Z,70.05
2022-12-31T08:00:16.228Z,68.57
2022-12-31T08:03:25.359Z,63.40
2022-12-31T08:06:25.746Z,61.30
2022-12-31T08:09:07.266Z,59.28
2022-12-31T08:11:56.234Z,53.97
2022-12-31T08:14:25.443Z,49.58
2022-12-31T08:16:54.087Z,50.13
2022-12-31T08:19:28.476Z,47.40
2022-12-31T08:22:20.632Z,49.22
2022-12-31T08:24:59.477Z,42.03
2022-12-31T08:28:00.178Z,42.40
2022-12-31T08:30:41.368Z,40.40
2022-12-31T08:33:24.243Z,40.42
2022-12-31T08:36:10.836Z,41.03
2022-12-31T08:38:42.177Z,44.28
2022-12-31T08:41:28.217Z,45.80
2022-12-31T08:44:11.087Z,43.53
2022-12-31T08:46:54.142Z,46.30
2022-12-31T08:49:22.747Z,46.45
2022-12-31T08:51:51.200Z,46.38
2022-12-31T08:58:34.938Z,47.10
2022-12-31T09:01:06.000Z,48.83
2022-12-31T09:04:21.923Z,52.28
2022-12-31T09:06:59.007Z,47.55
2022-12-31T09:09:56.245Z,42.67
2022-12-31T09:12:42.602Z,42.63
2022-12-31T09:15:38.028Z,47.00
2022-12-31T09:18:08.673Z,48.60
2022-12-31T09:20:44.824Z,48.65
2022-12-31T09:23:14.510Z,48.38
2022-12-31T09:25:58.703Z,49.38
2022-12-31T09:28:45.399Z,48.70
2022-12-31T09:31:26.469Z,49.80
2022-12-31T09:34:19.115Z,52.15
2022-12-31T09:36:56.401Z,51.72
2022-12-31T09:39:44.471Z,53.17
2022-12-31T09:42:53.804Z,50.22
2022-12-31T09:45:47.985Z,52.80
2022-12-31T09:49:04.402Z,56.65
2022-12-31T09:51:33.797Z,55.88
2022-12-31T09:54:10.493Z,58.65
2022-12-31T09:56:59.345Z,58.08
2022-12-31T09:59:41.540Z,48.97
2022-12-31T10:02:42.351Z,46.60
2022-12-31T10:05:31.994Z,42.40
2022-12-31T10:08:26.816Z,38.80
2022-12-31T10:11:03.866Z,40.95
2022-12-31T10:14:09.067Z,38.05
2022-12-31T10:16:59.128Z,37.67
2022-12-31T10:19:42.294Z,36.72
2022-12-31T10:22:37.763Z,36.13
2022-12-31T10:25:43.227Z,33.85
2022-12-31T10:28:29.770Z,33.45
2022-12-31T10:31:20.921Z,33.42
2022-12-31T10:34:16.950Z,33.25
2022-12-31T10:36:53.222Z,35.55
2022-12-31T10:39:30.439Z,36.08
2022-12-31T10:42:01.647Z,34.08
2022-12-31T10:44:57.631Z,34.43
2022-12-31T10:48:02.564Z,33.80
2022-12-31T10:51:04.782Z,35.92
2022-12-31T10:53:52.120Z,39.63
2022-12-31T10:56:35.798Z,38.75
2022-12-31T10:59:04.006Z,36.78
2022-12-31T11:01:35.132Z,38.38
2022-12-31T11:04:06.647Z,35.20
2022-12-31T11:06:56.341Z,33.15
2022-12-31T11:09:34.519Z,32.85
2022-12-31T11:12:26.405Z,73.68
2022-12-31T11:15:16.098Z,37.38
2022-12-31T11:17:47.356Z,32.20
2022-12-31T11:20:49.001Z,30.05
2022-12-31T11:23:55.161Z,29.37
2022-12-31T11:26:35.718Z,28.88
2022-12-31T11:29:19.258Z,28.13
2022-12-31T11:31:50.381Z,28.88
2022-12-31T11:34:38.994Z,28.93
2022-12-31T11:37:22.601Z,25.40
2022-12-31T11:40:14.365Z,26.00
2022-12-31T11:43:05.613Z,26.58
2022-12-31T11:45:33.923Z,26.15
2022-12-31T11:48:30.080Z,24.75
2022-12-31T11:51:23.330Z,24.60
2022-12-31T11:54:12.990Z,28.23
2022-12-31T11:56:53.372Z,32.33
2022-12-31T11:59:22.400Z,28.92
2022-12-31T12:02:04.927Z,25.02
2022-12-31T12:04:33.191Z,24.25
2022-12-31T12:07:01.436Z,25.35
2022-12-31T12:09:35.096Z,23.75
2022-12-31T12:12:06.048Z,25.50
2022-12-31T12:14:40.387Z,22.67
2022-12-31T12:17:24.707Z,24.23
2022-12-31T12:19:56.135Z,23.45
2022-12-31T12:22:26.530Z,23.60
2022-12-31T12:24:56.198Z,21.42
2022-12-31T12:27:29.497Z,21.92
2022-12-31T12:29:57.916Z,21.90
2022-12-31T12:32:28.046Z,22.40
2022-12-31T12:34:56.333Z,22.23
2022-12-31T12:37:35.381Z,23.48
2022-12-31T12:40:20.462Z,20.67
2022-12-31T12:42:54.006Z,22.08
2022-12-31T12:45:51.818Z,23.80
2022-12-31T12:48:32.296Z,24.08
2022-12-31T12:51:01.695Z,18.48
2022-12-31T12:54:04.507Z,18.70
2022-12-31T12:56:56.140Z,20.92
2022-12-31T12:59:43.866Z,23.40
2022-12-31T13:02:34.021Z,29.38
2022-12-31T13:05:32.973Z,19.10
2022-12-31T13:08:08.922Z,21.63
2022-12-31T13:10:58.915Z,20.20
2022-12-31T13:13:42.942Z,19.25
2022-12-31T13:16:25.544Z,19.85
2022-12-31T13:19:07.710Z,18.80
2022-12-31T13:21:36.056Z,22.40
2022-12-31T13:24:18.129Z,24.77
2022-12-31T13:26:57.465Z,27.08
2022-12-31T13:29:29.928Z,18.25
2022-12-31T13:32:01.246Z,20.85
2022-12-31T13:34:44.251Z,17.85
2022-12-31T13:37:38.693Z,16.40
2022-12-31T13:41:59.594Z,24.40
2022-12-31T13:44:59.348Z,18.70
2022-12-31T13:47:35.919Z,18.38
2022-12-31T13:50:29.871Z,18.45
2022-12-31T13:53:21.540Z,25.83
2022-12-31T13:56:03.689Z,25.58
2022-12-31T13:58:40.426Z,33.67
2022-12-31T14:01:33.420Z,30.58
2022-12-31T14:04:13.100Z,25.35
2022-12-31T14:06:53.600Z,25.23
2022-12-31T14:09:32.024Z,24.80
2022-12-31T14:12:00.402Z,33.80
2022-12-31T14:14:43.972Z,43.45
2022-12-31T14:17:33.729Z,57.63
2022-12-31T14:20:15.067Z,49.70
2022-12-31T14:22:52.576Z,24.67
2022-12-31T14:25:29.657Z,46.85
2022-12-31T14:28:02.685Z,35.20
2022-12-31T14:30:36.807Z,17.42
2022-12-31T14:33:20.452Z,16.98
2022-12-31T14:36:13.216Z,30.67
2022-12-31T14:39:14.002Z,34.15
2022-12-31T14:42:07.148Z,25.02
2022-12-31T14:45:06.220Z,19.55
2022-12-31T14:47:57.997Z,17.05
2022-12-31T14:50:30.782Z,30.08
2022-12-31T14:53:05.290Z,20.92
2022-12-31T14:55:36.144Z,16.40
2022-12-31T14:58:29.783Z,15.93
2022-12-31T15:01:17.707Z,18.25
2022-12-31T15:03:46.804Z,19.23
2022-12-31T15:06:24.033Z,22.15
2022-12-31T15:17:54.955Z,21.92
2022-12-31T15:20:44.389Z,19.67
2022-12-31T15:27:38.527Z,15.55
2022-12-31T15:31:21.584Z,18.80
2022-12-31T15:34:24.813Z,18.30
2022-12-31T15:36:56.509Z,23.00
2022-12-31T15:39:47.224Z,18.67
2022-12-31T15:42:49.401Z,15.88
2022-12-31T15:45:52.690Z,18.52
2022-12-31T15:50:59.412Z,17.98
2022-12-31T15:53:48.749Z,20.95
2022-12-31T15:56:25.150Z,25.15
2022-12-31T15:59:00.493Z,30.40
2022-12-31T16:01:37.104Z,39.83
2022-12-31T16:04:17.944Z,31.58
2022-12-31T16:06:50.669Z,26.55
2022-12-31T16:09:27.770Z,34.33
2022-12-31T16:11:57.933Z,29.08
2022-12-31T16:14:54.024Z,28.40
2022-12-31T16:17:36.546Z,33.63
2022-12-31T16:20:29.412Z,24.52
2022-12-31T16:22:58.645Z,33.78
2022-12-31T16:25:31.656Z,25.10
2022-12-31T16:28:03.223Z,29.33
2022-12-31T16:30:33.510Z,22.37
2022-12-31T16:33:07.208Z,34.73
2022-12-31T16:35:37.580Z,34.38
2022-12-31T16:38:08.797Z,39.13
2022-12-31T16:40:37.266Z,28.70
2022-12-31T16:43:25.267Z,30.20
2022-12-31T16:45:55.735Z,24.02
2022-12-31T16:48:24.197Z,21.90
2022-12-31T16:50:55.667Z,34.40
2022-12-31T16:53:27.713Z,29.40
2022-12-31T16:56:07.048Z,23.17
2022-12-31T16:58:44.491Z,29.42
2022-12-31T17:01:28.269Z,35.75
2022-12-31T17:04:04.903Z,31.55
2022-12-31T17:06:33.325Z,36.72
2022-12-31T17:09:14.778Z,31.55
2022-12-31T17:11:52.547Z,36.28
2022-12-31T17:14:26.549Z,42.72
2022-12-31T17:17:05.945Z,37.92
2022-12-31T17:19:42.581Z,34.88
2022-12-31T17:25:36.591Z,50.60
2022-12-31T17:28:08.405Z,31.95
2022-12-31T17:33:12.404Z,39.05
2022-12-31T17:35:43.074Z,38.55
2022-12-31T17:38:32.296Z,38.80
2022-12-31T17:41:03.687Z,29.63
2022-12-31T17:43:35.458Z,26.35
2022-12-31T17:46:16.367Z,32.03
2022-12-31T17:48:49.809Z,40.17
2022-12-31T17:51:18.256Z,45.50
2022-12-31T17:53:53.011Z,38.90
2022-12-31T17:56:21.648Z,36.75
2022-12-31T17:58:52.959Z,39.90
2022-12-31T18:01:23.490Z,38.70
2022-12-31T18:03:52.076Z,47.17
2022-12-31T18:06:20.389Z,47.90
2022-12-31T18:08:48.649Z,55.85
2022-12-31T18:11:21.434Z,61.70
2022-12-31T18:13:50.829Z,69.43
2022-12-31T18:16:19.279Z,66.30
2022-12-31T18:18:47.492Z,56.25
2022-12-31T18:21:24.084Z,61.40
2022-12-31T18:26:22.998Z,76.45
2022-12-31T18:28:52.316Z,71.13
2022-12-31T18:31:22.965Z,73.32
2022-12-31T18:33:52.927Z,73.85
2022-12-31T18:36:22.644Z,73.93
2022-12-31T18:38:51.666Z,77.05
2022-12-31T18:41:23.169Z,73.15
2022-12-31T18:43:51.766Z,83.95
2022-12-31T18:46:22.759Z,86.55
2022-12-31T18:48:51.297Z,84.50
2022-12-31T18:51:26.442Z,83.72
2022-12-31T18:54:00.844Z,84.95
2022-12-31T18:56:29.303Z,90.60
2022-12-31T18:58:57.701Z,99.15
2022-12-31T19:01:41.003Z,95.18
2022-12-31T19:04:22.888Z,91.28
2022-12-31T19:06:55.685Z,99.93
2022-12-31T19:12:15.291Z,91.18
2022-12-31T19:14:43.563Z,94.82
2022-12-31T19:17:11.755Z,99.28
2022-12-31T19:19:40.161Z,107.03
2022-12-31T19:22:15.419Z,109.65
2022-12-31T19:24:43.870Z,107.70
2022-12-31T19:27:15.736Z,110.53
2022-12-31T19:32:12.111Z,128.65
2022-12-31T19:34:41.455Z,174.10
2022-12-31T19:37:15.799Z,166.07
2022-12-31T19:39:45.120Z,157.88
2022-12-31T19:42:16.355Z,157.10
2022-12-31T19:44:44.526Z,157.23
2022-12-31T19:47:14.095Z,151.48
2022-12-31T19:49:42.376Z,168.38
2022-12-31T19:52:11.217Z,184.25
2022-12-31T19:54:39.448Z,201.23
2022-12-31T19:57:07.679Z,214.27
2022-12-31T19:59:35.972Z,208.27
2022-12-31T20:02:04.521Z,216.88
2022-12-31T20:04:32.894Z,221.65
2022-12-31T20:07:01.172Z,220.48
2022-12-31T20:09:29.361Z,212.70
2022-12-31T20:11:57.663Z,199.48
2022-12-31T20:14:25.832Z,194.95
2022-12-31T20:16:54.123Z,179.20
2022-12-31T20:19:22.560Z,177.90
2022-12-31T20:21:50.813Z,168.73
2022-12-31T20:24:19.018Z,164.27
2022-12-31T20:26:47.439Z,156.35
2022-12-31T20:29:15.777Z,150.63
2022-12-31T20:31:44.167Z,150.55
2022-12-31T20:34:12.936Z,151.10
2022-12-31T20:36:41.201Z,147.40
2022-12-31T20:39:09.581Z,145.68
2022-12-31T20:41:37.796Z,148.60
2022-12-31T20:44:06.311Z,140.77
2022-12-31T20:46:34.619Z,143.60
2022-12-31T20:49:04.854Z,142.98
2022-12-31T20:51:35.423Z,143.15
2022-12-31T20:54:07.283Z,139.32
2022-12-31T20:56:37.718Z,140.60
2022-12-31T20:59:07.358Z,145.52
2022-12-31T21:01:55.408Z,144.27
2022-12-31T21:04:24.074Z,136.45
2022-12-31T21:07:50.236Z,143.50
2022-12-31T21:10:18.655Z,141.43
2022-12-31T21:12:46.982Z,140.10
2022-12-31T21:15:15.194Z,144.82
2022-12-31T21:17:43.410Z,141.32
2022-12-31T21:20:12.117Z,151.15
2022-12-31T21:22:40.341Z,155.25
2022-12-31T21:25:08.961Z,160.00
2022-12-31T21:27:37.242Z,164.40
2022-12-31T21:30:21.351Z,163.48
2022-12-31T21:32:49.796Z,157.10
2022-12-31T21:38:08.014Z,159.63
2022-12-31T21:40:36.813Z,155.25
2022-12-31T21:43:05.006Z,173.30
2022-12-31T21:45:33.216Z,205.68
2022-12-31T21:48:02.202Z,216.68
2022-12-31T21:50:30.447Z,230.15
2022-12-31T21:52:58.545Z,231.48
2022-12-31T21:55:26.993Z,229.73
2022-12-31T22:00:43.841Z,217.23
2022-12-31T22:03:13.523Z,222.63
2022-12-31T22:05:52.260Z,220.57
2022-12-31T22:08:22.562Z,235.57
2022-12-31T22:10:53.025Z,240.98
2022-12-31T22:13:22.019Z,256.70
2022-12-31T22:15:58.703Z,263.48
2022-12-31T22:18:30.931Z,267.58
2022-12-31T22:21:04.327Z,265.92
2022-12-31T22:23:33.597Z,267.48
2022-12-31T22:26:03.083Z,273.65
2022-12-31T22:28:40.014Z,283.55
2022-12-31T22:31:16.812Z,282.83
2022-12-31T22:33:45.196Z,291.05
2022-12-31T22:36:16.127Z,302.10
2022-12-31T22:38:45.188Z,316.60
2022-12-31T22:41:16.135Z,349.25
2022-12-31T22:43:46.990Z,352.42
2022-12-31T22:46:23.900Z,357.08
2022-12-31T22:48:54.874Z,355.98
2022-12-31T22:51:23.228Z,360.77
2022-12-31T22:53:52.596Z,348.70
2022-12-31T22:56:20.971Z,349.55
2022-12-31T22:58:49.188Z,362.67
2022-12-31T23:01:22.480Z,370.33
2022-12-31T23:03:53.420Z,381.38
2022-12-31T23:06:23.215Z,389.05
2022-12-31T23:08:52.175Z,379.40
2022-12-31T23:11:20.404Z,368.48
2022-12-31T23:13:50.846Z,365.65
2022-12-31T23:16:20.260Z,373.45
2022-12-31T23:18:48.580Z,360.35
2022-12-31T23:21:17.174Z,352.00
2022-12-31T23:23:45.353Z,341.50
2022-12-31T23:26:13.676Z,330.15
2022-12-31T23:28:42.049Z,311.63
2022-12-31T23:31:10.360Z,310.58
2022-12-31T23:33:39.078Z,318.20
2022-12-31T23:36:08.715Z,301.45
2022-12-31T23:38:36.961Z,284.35
2022-12-31T23:41:20.515Z,274.45
2022-12-31T23:43:49.191Z,269.48
2022-12-31T23:46:18.250Z,255.00
2022-12-31T23:48:46.702Z,253.10
2022-12-31T23:51:14.832Z,246.98
2022-12-31T23:53:43.000Z,230.48
2022-12-31T23:56:22.843Z,222.98
2022-12-31T23:58:55.522Z,225.25
